sensor_id;sensor_type;location;lat;lon;timestamp;P1;durP1;ratioP1;P2;durP2;ratioP2
61385;SDS011;47256;18.904;-99.054;2022-12-29T00:01:42;11.52;;;5.75;;
61385;SDS011;47256;18.904;-99.054;2022-12-29T00:04:10;9.27;;;4.38;;
61385;SDS011;47256;18.904;-99.054;2022-12-29T00:06:40;9.38;;;4.35;;
61385;SDS011;47256;18.904;-99.054;2022-12-29T00:09:10;13.10;;;4.30;;
61385;SDS011;47256;18.904;-99.054;2022-12-29T00:11:39;16.88;;;5.13;;
61385;SDS011;47256;18.904;-99.054;2022-12-29T00:14:09;92.22;;;8.98;;
61385;SDS011;47256;18.904;-99.054;2022-12-29T00:16:57;59.25;;;7.60;;
61385;SDS011;47256;18.904;-99.054;2022-12-29T00:19:30;57.55;;;7.38;;
61385;SDS011;47256;18.904;-99.054;2022-12-29T00:22:19;45.08;;;7.25;;
61385;SDS011;47256;18.904;-99.054;2022-12-29T00:25:25;45.58;;;6.57;;
61385;SDS011;47256;18.904;-99.054;2022-12-29T00:28:11;15.45;;;5.93;;
61385;SDS011;47256;18.904;-99.054;2022-12-29T00:31:00;14.90;;;4.82;;
61385;SDS011;47256;18.904;-99.054;2022-12-29T00:33:47;13.60;;;4.18;;
61385;SDS011;47256;18.904;-99.054;2022-12-29T00:36:35;15.40;;;4.22;;
61385;SDS011;47256;18.904;-99.054;2022-12-29T00:39:09;6.97;;;3.80;;
61385;SDS011;47256;18.904;-99.054;2022-12-29T00:42:05;7.38;;;3.92;;
61385;SDS011;47256;18.904;-99.054;2022-12-29T00:45:05;7.38;;;3.45;;
61385;SDS011;47256;18.904;-99.054;2022-12-29T00:47:33;12.80;;;3.25;;
61385;SDS011;47256;18.904;-99.054;2022-12-29T00:50:02;9.75;;;3.90;;
61385;SDS011;47256;18.904;-99.054;2022-12-29T00:52:30;7.07;;;3.45;;
61385;SDS011;47256;18.904;-99.054;2022-12-29T00:55:01;9.60;;;3.60;;
61385;SDS011;47256;18.904;-99.054;2022-12-29T00:57:30;11.45;;;5.05;;
61385;SDS011;47256;18.904;-99.054;2022-12-29T00:59:59;13.98;;;4.78;;
61385;SDS011;47256;18.904;-99.054;2022-12-29T01:02:30;16.42;;;5.55;;
61385;SDS011;47256;18.904;-99.054;2022-12-29T01:05:00;16.05;;;5.70;;
61385;SDS011;47256;18.904;-99.054;2022-12-29T01:07:44;12.32;;;6.15;;
61385;SDS011;47256;18.904;-99.054;2022-12-29T01:10:12;16.50;;;6.82;;
61385;SDS011;47256;18.904;-99.054;2022-12-29T01:12:41;16.23;;;7.57;;
61385;SDS011;47256;18.904;-99.054;2022-12-29T01:18:07;15.38;;;7.95;;
61385;SDS011;47256;18.904;-99.054;2022-12-29T01:20:40;18.10;;;9.40;;
61385;SDS011;47256;18.904;-99.054;2022-12-29T01:23:09;21.17;;;8.85;;
61385;SDS011;47256;18.904;-99.054;2022-12-29T01:25:39;22.20;;;8.55;;
61385;SDS011;47256;18.904;-99.054;2022-12-29T01:28:10;18.17;;;7.97;;
61385;SDS011;47256;18.904;-99.054;2022-12-29T01:30:41;25.20;;;8.48;;
61385;SDS011;47256;18.904;-99.054;2022-12-29T01:33:12;21.90;;;8.95;;
61385;SDS011;47256;18.904;-99.054;2022-12-29T01:35:40;20.25;;;9.00;;
61385;SDS011;47256;18.904;-99.054;2022-12-29T01:38:07;28.17;;;9.15;;
61385;SDS011;47256;18.904;-99.054;2022-12-29T01:40:43;21.13;;;9.13;;
61385;SDS011;47256;18.904;-99.054;2022-12-29T01:45:50;17.60;;;9.23;;
61385;SDS011;47256;18.904;-99.054;2022-12-29T01:48:21;26.20;;;8.10;;
61385;SDS011;47256;18.904;-99.054;2022-12-29T01:50:52;23.83;;;7.97;;
61385;SDS011;47256;18.904;-99.054;2022-12-29T01:53:26;18.25;;;7.32;;
61385;SDS011;47256;18.904;-99.054;2022-12-29T01:56:00;17.02;;;7.93;;
61385;SDS011;47256;18.904;-99.054;2022-12-29T01:58:39;23.25;;;9.13;;
61385;SDS011;47256;18.904;-99.054;2022-12-29T02:01:11;30.17;;;12.85;;
61385;SDS011;47256;18.904;-99.054;2022-12-29T02:03:41;22.75;;;10.40;;
61385;SDS011;47256;18.904;-99.054;2022-12-29T02:06:18;22.20;;;9.73;;
61385;SDS011;47256;18.904;-99.054;2022-12-29T02:08:53;20.98;;;10.00;;
61385;SDS011;47256;18.904;-99.054;2022-12-29T02:11:27;25.00;;;12.30;;
61385;SDS011;47256;18.904;-99.054;2022-12-29T02:13:58;27.13;;;12.73;;
61385;SDS011;47256;18.904;-99.054;2022-12-29T02:17:00;37.67;;;15.85;;
61385;SDS011;47256;18.904;-99.054;2022-12-29T02:31:25;61.25;;;23.42;;
61385;SDS011;47256;18.904;-99.054;2022-12-29T02:46:10;30.77;;;13.80;;
61385;SDS011;47256;18.904;-99.054;2022-12-29T02:52:14;28.45;;;14.75;;
61385;SDS011;47256;18.904;-99.054;2022-12-29T02:54:52;32.70;;;14.85;;
61385;SDS011;47256;18.904;-99.054;2022-12-29T02:57:34;39.17;;;16.98;;
61385;SDS011;47256;18.904;-99.054;2022-12-29T03:00:16;51.60;;;15.52;;
61385;SDS011;47256;18.904;-99.054;2022-12-29T03:03:04;42.17;;;18.90;;
61385;SDS011;47256;18.904;-99.054;2022-12-29T03:09:10;38.13;;;16.05;;
61385;SDS011;47256;18.904;-99.054;2022-12-29T03:12:13;48.80;;;15.40;;
61385;SDS011;47256;18.904;-99.054;2022-12-29T03:22:01;28.83;;;13.15;;
61385;SDS011;47256;18.904;-99.054;2022-12-29T03:25:05;23.90;;;11.23;;
61385;SDS011;47256;18.904;-99.054;2022-12-29T03:28:13;27.58;;;11.85;;
61385;SDS011;47256;18.904;-99.054;2022-12-29T03:30:55;28.27;;;11.43;;
61385;SDS011;47256;18.904;-99.054;2022-12-29T03:33:38;29.95;;;10.73;;
61385;SDS011;47256;18.904;-99.054;2022-12-29T03:36:20;26.17;;;11.23;;
61385;SDS011;47256;18.904;-99.054;2022-12-29T03:39:02;31.42;;;13.35;;
61385;SDS011;47256;18.904;-99.054;2022-12-29T03:41:47;32.20;;;12.13;;
61385;SDS011;47256;18.904;-99.054;2022-12-29T03:47:32;28.35;;;10.07;;
61385;SDS011;47256;18.904;-99.054;2022-12-29T03:50:04;21.15;;;11.48;;
61385;SDS011;47256;18.904;-99.054;2022-12-29T03:52:43;18.70;;;8.82;;
61385;SDS011;47256;18.904;-99.054;2022-12-29T03:55:24;17.38;;;9.25;;
61385;SDS011;47256;18.904;-99.054;2022-12-29T03:57:58;20.55;;;8.75;;
61385;SDS011;47256;18.904;-99.054;2022-12-29T04:01:02;18.70;;;8.35;;
61385;SDS011;47256;18.904;-99.054;2022-12-29T04:03:40;16.92;;;8.07;;
61385;SDS011;47256;18.904;-99.054;2022-12-29T04:06:29;15.68;;;8.98;;
61385;SDS011;47256;18.904;-99.054;2022-12-29T04:09:07;12.00;;;6.93;;
61385;SDS011;47256;18.904;-99.054;2022-12-29T04:11:45;16.23;;;6.70;;
61385;SDS011;47256;18.904;-99.054;2022-12-29T04:14:48;19.23;;;8.32;;
61385;SDS011;47256;18.904;-99.054;2022-12-29T04:17:45;26.20;;;8.55;;
61385;SDS011;47256;18.904;-99.054;2022-12-29T04:20:27;19.65;;;8.10;;
61385;SDS011;47256;18.904;-99.054;2022-12-29T04:23:20;26.02;;;9.38;;
61385;SDS011;47256;18.904;-99.054;2022-12-29T04:29:12;16.83;;;9.15;;
61385;SDS011;47256;18.904;-99.054;2022-12-29T04:32:09;19.15;;;8.35;;
61385;SDS011;47256;18.904;-99.054;2022-12-29T04:35:06;22.95;;;8.02;;
61385;SDS011;47256;18.904;-99.054;2022-12-29T04:37:44;16.52;;;7.10;;
61385;SDS011;47256;18.904;-99.054;2022-12-29T04:40:17;14.15;;;7.75;;
61385;SDS011;47256;18.904;-99.054;2022-12-29T04:42:53;14.77;;;8.65;;
61385;SDS011;47256;18.904;-99.054;2022-12-29T04:45:51;17.33;;;9.70;;
61385;SDS011;47256;18.904;-99.054;2022-12-29T04:48:33;18.25;;;8.98;;
61385;SDS011;47256;18.904;-99.054;2022-12-29T04:51:28;27.30;;;11.35;;
61385;SDS011;47256;18.904;-99.054;2022-12-29T04:54:08;23.63;;;11.23;;
61385;SDS011;47256;18.904;-99.054;2022-12-29T04:56:44;15.63;;;9.57;;
61385;SDS011;47256;18.904;-99.054;2022-12-29T04:59:19;17.55;;;9.93;;
61385;SDS011;47256;18.904;-99.054;2022-12-29T05:01:55;14.43;;;8.40;;
61385;SDS011;47256;18.904;-99.054;2022-12-29T05:04:33;14.23;;;8.05;;
61385;SDS011;47256;18.904;-99.054;2022-12-29T05:07:06;18.40;;;8.35;;
61385;SDS011;47256;18.904;-99.054;2022-12-29T05:09:43;16.23;;;7.50;;
61385;SDS011;47256;18.904;-99.054;2022-12-29T05:12:19;18.55;;;9.57;;
61385;SDS011;47256;18.904;-99.054;2022-12-29T05:15:15;14.48;;;7.65;;
61385;SDS011;47256;18.904;-99.054;2022-12-29T05:17:44;11.82;;;6.88;;
61385;SDS011;47256;18.904;-99.054;2022-12-29T05:20:16;18.08;;;9.07;;
61385;SDS011;47256;18.904;-99.054;2022-12-29T05:22:46;16.52;;;7.57;;
61385;SDS011;47256;18.904;-99.054;2022-12-29T05:25:17;16.25;;;8.05;;
61385;SDS011;47256;18.904;-99.054;2022-12-29T05:28:11;20.02;;;7.72;;
61385;SDS011;47256;18.904;-99.054;2022-12-29T05:30:56;17.58;;;8.13;;
61385;SDS011;47256;18.904;-99.054;2022-12-29T05:33:26;12.82;;;7.35;;
61385;SDS011;47256;18.904;-99.054;2022-12-29T05:35:55;18.58;;;8.23;;
61385;SDS011;47256;18.904;-99.054;2022-12-29T05:38:24;24.35;;;8.48;;
61385;SDS011;47256;18.904;-99.054;2022-12-29T05:40:52;10.15;;;6.13;;
61385;SDS011;47256;18.904;-99.054;2022-12-29T05:43:47;19.30;;;8.48;;
61385;SDS011;47256;18.904;-99.054;2022-12-29T05:46:41;19.75;;;8.15;;
61385;SDS011;47256;18.904;-99.054;2022-12-29T05:49:15;18.30;;;7.70;;
61385;SDS011;47256;18.904;-99.054;2022-12-29T05:51:54;13.32;;;6.75;;
61385;SDS011;47256;18.904;-99.054;2022-12-29T05:54:23;13.63;;;7.50;;
61385;SDS011;47256;18.904;-99.054;2022-12-29T05:56:52;9.98;;;7.13;;
61385;SDS011;47256;18.904;-99.054;2022-12-29T05:59:22;29.80;;;7.93;;
61385;SDS011;47256;18.904;-99.054;2022-12-29T06:01:51;17.52;;;8.35;;
61385;SDS011;47256;18.904;-99.054;2022-12-29T06:04:22;15.65;;;7.95;;
61385;SDS011;47256;18.904;-99.054;2022-12-29T06:06:50;26.45;;;9.57;;
61385;SDS011;47256;18.904;-99.054;2022-12-29T06:09:35;16.98;;;7.35;;
61385;SDS011;47256;18.904;-99.054;2022-12-29T06:12:04;16.48;;;7.15;;
61385;SDS011;47256;18.904;-99.054;2022-12-29T06:14:32;14.23;;;6.63;;
61385;SDS011;47256;18.904;-99.054;2022-12-29T06:17:05;12.45;;;7.00;;
61385;SDS011;47256;18.904;-99.054;2022-12-29T06:19:33;10.25;;;5.80;;
61385;SDS011;47256;18.904;-99.054;2022-12-29T06:22:00;10.70;;;5.88;;
61385;SDS011;47256;18.904;-99.054;2022-12-29T06:24:31;7.43;;;5.18;;
61385;SDS011;47256;18.904;-99.054;2022-12-29T06:27:03;14.15;;;5.00;;
61385;SDS011;47256;18.904;-99.054;2022-12-29T06:29:31;12.43;;;5.50;;
61385;SDS011;47256;18.904;-99.054;2022-12-29T06:32:00;8.40;;;5.32;;
61385;SDS011;47256;18.904;-99.054;2022-12-29T06:34:30;14.23;;;6.72;;
61385;SDS011;47256;18.904;-99.054;2022-12-29T06:36:57;12.63;;;6.63;;
61385;SDS011;47256;18.904;-99.054;2022-12-29T06:39:24;13.73;;;5.40;;
61385;SDS011;47256;18.904;-99.054;2022-12-29T06:42:05;11.63;;;6.45;;
61385;SDS011;47256;18.904;-99.054;2022-12-29T06:45:06;12.32;;;5.75;;
61385;SDS011;47256;18.904;-99.054;2022-12-29T06:47:34;12.13;;;6.63;;
61385;SDS011;47256;18.904;-99.054;2022-12-29T06:50:02;11.45;;;5.63;;
61385;SDS011;47256;18.904;-99.054;2022-12-29T06:52:31;10.38;;;6.18;;
61385;SDS011;47256;18.904;-99.054;2022-12-29T06:54:59;11.48;;;5.40;;
61385;SDS011;47256;18.904;-99.054;2022-12-29T06:57:26;10.85;;;6.72;;
61385;SDS011;47256;18.904;-99.054;2022-12-29T06:59:54;12.32;;;5.95;;
61385;SDS011;47256;18.904;-99.054;2022-12-29T07:02:24;11.30;;;5.75;;
61385;SDS011;47256;18.904;-99.054;2022-12-29T07:04:51;15.77;;;6.05;;
61385;SDS011;47256;18.904;-99.054;2022-12-29T07:07:19;14.88;;;6.22;;
61385;SDS011;47256;18.904;-99.054;2022-12-29T07:09:46;12.73;;;5.90;;
61385;SDS011;47256;18.904;-99.054;2022-12-29T07:12:14;13.02;;;6.25;;
61385;SDS011;47256;18.904;-99.054;2022-12-29T07:15:09;12.75;;;5.05;;
61385;SDS011;47256;18.904;-99.054;2022-12-29T07:17:37;13.85;;;5.50;;
61385;SDS011;47256;18.904;-99.054;2022-12-29T07:20:06;11.90;;;5.97;;
61385;SDS011;47256;18.904;-99.054;2022-12-29T07:22:35;10.85;;;6.25;;
61385;SDS011;47256;18.904;-99.054;2022-12-29T07:25:02;10.80;;;6.35;;
61385;SDS011;47256;18.904;-99.054;2022-12-29T07:27:32;13.18;;;6.20;;
61385;SDS011;47256;18.904;-99.054;2022-12-29T07:29:59;20.60;;;9.57;;
61385;SDS011;47256;18.904;-99.054;2022-12-29T07:32:27;11.82;;;6.18;;
61385;SDS011;47256;18.904;-99.054;2022-12-29T07:34:54;20.13;;;6.10;;
61385;SDS011;47256;18.904;-99.054;2022-12-29T07:37:21;10.45;;;6.03;;
61385;SDS011;47256;18.904;-99.054;2022-12-29T07:39:48;10.32;;;5.50;;
61385;SDS011;47256;18.904;-99.054;2022-12-29T07:42:15;12.65;;;4.82;;
61385;SDS011;47256;18.904;-99.054;2022-12-29T07:44:49;7.57;;;5.15;;
61385;SDS011;47256;18.904;-99.054;2022-12-29T07:47:54;15.02;;;5.78;;
61385;SDS011;47256;18.904;-99.054;2022-12-29T07:50:22;7.82;;;4.97;;
61385;SDS011;47256;18.904;-99.054;2022-12-29T07:52:50;11.10;;;5.63;;
61385;SDS011;47256;18.904;-99.054;2022-12-29T07:55:18;13.10;;;5.70;;
61385;SDS011;47256;18.904;-99.054;2022-12-29T07:57:45;12.10;;;5.75;;
61385;SDS011;47256;18.904;-99.054;2022-12-29T08:00:18;9.98;;;6.32;;
61385;SDS011;47256;18.904;-99.054;2022-12-29T08:02:45;12.60;;;6.57;;
61385;SDS011;47256;18.904;-99.054;2022-12-29T08:05:12;8.55;;;5.53;;
61385;SDS011;47256;18.904;-99.054;2022-12-29T08:07:44;14.57;;;5.88;;
61385;SDS011;47256;18.904;-99.054;2022-12-29T08:10:13;15.55;;;6.78;;
61385;SDS011;47256;18.904;-99.054;2022-12-29T08:12:45;11.88;;;5.18;;
61385;SDS011;47256;18.904;-99.054;2022-12-29T08:15:14;8.43;;;5.28;;
61385;SDS011;47256;18.904;-99.054;2022-12-29T08:17:46;7.63;;;5.30;;
61385;SDS011;47256;18.904;-99.054;2022-12-29T08:20:13;21.27;;;5.50;;
61385;SDS011;47256;18.904;-99.054;2022-12-29T08:22:40;9.88;;;5.38;;
61385;SDS011;47256;18.904;-99.054;2022-12-29T08:25:08;11.98;;;6.28;;
61385;SDS011;47256;18.904;-99.054;2022-12-29T08:27:36;17.67;;;7.38;;
61385;SDS011;47256;18.904;-99.054;2022-12-29T08:30:10;10.43;;;5.25;;
61385;SDS011;47256;18.904;-99.054;2022-12-29T08:32:37;12.13;;;6.43;;
61385;SDS011;47256;18.904;-99.054;2022-12-29T08:35:05;14.77;;;6.00;;
61385;SDS011;47256;18.904;-99.054;2022-12-29T08:37:33;10.70;;;5.30;;
61385;SDS011;47256;18.904;-99.054;2022-12-29T08:40:00;9.95;;;5.40;;
61385;SDS011;47256;18.904;-99.054;2022-12-29T08:42:31;12.88;;;6.00;;
61385;SDS011;47256;18.904;-99.054;2022-12-29T08:44:59;16.50;;;6.90;;
61385;SDS011;47256;18.904;-99.054;2022-12-29T08:47:27;11.00;;;5.07;;
61385;SDS011;47256;18.904;-99.054;2022-12-29T08:49:54;8.73;;;5.07;;
61385;SDS011;47256;18.904;-99.054;2022-12-29T08:52:21;8.95;;;5.55;;
61385;SDS011;47256;18.904;-99.054;2022-12-29T08:54:49;8.95;;;5.43;;
61385;SDS011;47256;18.904;-99.054;2022-12-29T08:57:17;9.40;;;4.75;;
61385;SDS011;47256;18.904;-99.054;2022-12-29T09:00:07;8.82;;;5.57;;
61385;SDS011;47256;18.904;-99.054;2022-12-29T09:02:35;10.57;;;5.85;;
61385;SDS011;47256;18.904;-99.054;2022-12-29T09:05:02;13.00;;;5.65;;
61385;SDS011;47256;18.904;-99.054;2022-12-29T09:07:34;8.18;;;4.20;;
61385;SDS011;47256;18.904;-99.054;2022-12-29T09:10:02;16.23;;;6.28;;
61385;SDS011;47256;18.904;-99.054;2022-12-29T09:12:31;8.82;;;4.75;;
61385;SDS011;47256;18.904;-99.054;2022-12-29T09:15:02;10.23;;;5.57;;
61385;SDS011;47256;18.904;-99.054;2022-12-29T09:17:32;13.63;;;6.68;;
61385;SDS011;47256;18.904;-99.054;2022-12-29T09:20:12;10.82;;;5.63;;
61385;SDS011;47256;18.904;-99.054;2022-12-29T09:22:42;16.42;;;5.90;;
61385;SDS011;47256;18.904;-99.054;2022-12-29T09:25:10;10.82;;;5.10;;
61385;SDS011;47256;18.904;-99.054;2022-12-29T09:27:39;8.70;;;5.72;;
61385;SDS011;47256;18.904;-99.054;2022-12-29T09:30:07;10.35;;;5.40;;
61385;SDS011;47256;18.904;-99.054;2022-12-29T09:32:36;10.65;;;4.53;;
61385;SDS011;47256;18.904;-99.054;2022-12-29T09:35:03;10.23;;;5.05;;
61385;SDS011;47256;18.904;-99.054;2022-12-29T09:37:32;20.80;;;5.55;;
61385;SDS011;47256;18.904;-99.054;2022-12-29T09:40:02;8.90;;;4.80;;
61385;SDS011;47256;18.904;-99.054;2022-12-29T09:42:53;7.15;;;4.47;;
61385;SDS011;47256;18.904;-99.054;2022-12-29T09:45:45;11.35;;;5.72;;
61385;SDS011;47256;18.904;-99.054;2022-12-29T09:48:15;6.75;;;4.50;;
61385;SDS011;47256;18.904;-99.054;2022-12-29T09:50:55;7.88;;;4.40;;
61385;SDS011;47256;18.904;-99.054;2022-12-29T09:56:11;10.07;;;5.60;;
61385;SDS011;47256;18.904;-99.054;2022-12-29T09:58:54;9.23;;;4.38;;
61385;SDS011;47256;18.904;-99.054;2022-12-29T10:01:49;8.85;;;4.50;;
61385;SDS011;47256;18.904;-99.054;2022-12-29T10:04:27;6.70;;;3.63;;
61385;SDS011;47256;18.904;-99.054;2022-12-29T10:06:57;8.82;;;5.20;;
61385;SDS011;47256;18.904;-99.054;2022-12-29T10:12:57;9.63;;;4.97;;
61385;SDS011;47256;18.904;-99.054;2022-12-29T10:18:57;10.60;;;4.68;;
61385;SDS011;47256;18.904;-99.054;2022-12-29T10:21:53;6.85;;;3.90;;
61385;SDS011;47256;18.904;-99.054;2022-12-29T10:24:36;12.10;;;5.25;;
61385;SDS011;47256;18.904;-99.054;2022-12-29T10:27:12;8.55;;;4.82;;
61385;SDS011;47256;18.904;-99.054;2022-12-29T10:29:49;7.78;;;5.50;;
61385;SDS011;47256;18.904;-99.054;2022-12-29T10:35:14;9.52;;;4.70;;
61385;SDS011;47256;18.904;-99.054;2022-12-29T10:38:02;9.10;;;4.97;;
61385;SDS011;47256;18.904;-99.054;2022-12-29T10:40:43;9.48;;;5.15;;
61385;SDS011;47256;18.904;-99.054;2022-12-29T10:46:20;10.38;;;4.75;;
61385;SDS011;47256;18.904;-99.054;2022-12-29T10:48:56;7.18;;;4.70;;
61385;SDS011;47256;18.904;-99.054;2022-12-29T10:51:31;8.15;;;4.63;;
61385;SDS011;47256;18.904;-99.054;2022-12-29T10:54:06;11.48;;;5.90;;
61385;SDS011;47256;18.904;-99.054;2022-12-29T10:56:59;13.65;;;5.15;;
61385;SDS011;47256;18.904;-99.054;2022-12-29T10:59:33;9.40;;;4.53;;
61385;SDS011;47256;18.904;-99.054;2022-12-29T11:07:19;7.57;;;3.97;;
61385;SDS011;47256;18.904;-99.054;2022-12-29T11:09:49;9.38;;;4.82;;
61385;SDS011;47256;18.904;-99.054;2022-12-29T11:12:24;9.40;;;4.72;;
61385;SDS011;47256;18.904;-99.054;2022-12-29T11:15:23;5.05;;;4.13;;
61385;SDS011;47256;18.904;-99.054;2022-12-29T11:17:52;6.63;;;3.85;;
61385;SDS011;47256;18.904;-99.054;2022-12-29T11:20:38;6.47;;;4.00;;
61385;SDS011;47256;18.904;-99.054;2022-12-29T11:23:21;8.45;;;3.30;;
61385;SDS011;47256;18.904;-99.054;2022-12-29T11:26:22;12.50;;;5.20;;
61385;SDS011;47256;18.904;-99.054;2022-12-29T11:31:56;7.55;;;4.03;;
61385;SDS011;47256;18.904;-99.054;2022-12-29T11:34:26;8.75;;;4.10;;
61385;SDS011;47256;18.904;-99.054;2022-12-29T11:37:02;12.98;;;4.65;;
61385;SDS011;47256;18.904;-99.054;2022-12-29T11:39:39;7.35;;;3.90;;
61385;SDS011;47256;18.904;-99.054;2022-12-29T11:42:17;7.70;;;4.30;;
61385;SDS011;47256;18.904;-99.054;2022-12-29T11:44:49;6.15;;;3.97;;
61385;SDS011;47256;18.904;-99.054;2022-12-29T11:47:23;6.22;;;4.40;;
61385;SDS011;47256;18.904;-99.054;2022-12-29T11:50:01;8.15;;;4.10;;
61385;SDS011;47256;18.904;-99.054;2022-12-29T11:52:36;8.80;;;3.97;;
61385;SDS011;47256;18.904;-99.054;2022-12-29T11:55:05;6.63;;;4.10;;
61385;SDS011;47256;18.904;-99.054;2022-12-29T11:57:44;6.28;;;4.18;;
61385;SDS011;47256;18.904;-99.054;2022-12-29T12:00:19;9.05;;;3.78;;
61385;SDS011;47256;18.904;-99.054;2022-12-29T12:11:16;4.63;;;3.05;;
61385;SDS011;47256;18.904;-99.054;2022-12-29T12:17:14;6.07;;;3.67;;
61385;SDS011;47256;18.904;-99.054;2022-12-29T12:23:12;11.25;;;4.43;;
61385;SDS011;47256;18.904;-99.054;2022-12-29T12:28:52;9.50;;;4.78;;
61385;SDS011;47256;18.904;-99.054;2022-12-29T12:33:57;10.43;;;4.78;;
61385;SDS011;47256;18.904;-99.054;2022-12-29T12:39:10;10.57;;;4.93;;
61385;SDS011;47256;18.904;-99.054;2022-12-29T12:44:41;8.13;;;4.97;;
61385;SDS011;47256;18.904;-99.054;2022-12-29T13:12:16;7.30;;;4.70;;
61385;SDS011;47256;18.904;-99.054;2022-12-29T13:24:05;18.20;;;5.93;;
61385;SDS011;47256;18.904;-99.054;2022-12-29T13:26:41;12.57;;;5.67;;
61385;SDS011;47256;18.904;-99.054;2022-12-29T13:29:20;21.25;;;5.38;;
61385;SDS011;47256;18.904;-99.054;2022-12-29T13:32:00;9.20;;;4.13;;
61385;SDS011;47256;18.904;-99.054;2022-12-29T13:34:56;9.73;;;4.97;;
61385;SDS011;47256;18.904;-99.054;2022-12-29T13:40:49;17.67;;;5.68;;
61385;SDS011;47256;18.904;-99.054;2022-12-29T13:43:23;15.77;;;5.28;;
61385;SDS011;47256;18.904;-99.054;2022-12-29T13:45:57;12.05;;;5.43;;
61385;SDS011;47256;18.904;-99.054;2022-12-29T13:48:36;15.60;;;5.65;;
61385;SDS011;47256;18.904;-99.054;2022-12-29T13:51:11;16.60;;;6.13;;
61385;SDS011;47256;18.904;-99.054;2022-12-29T13:56:52;11.57;;;6.10;;
61385;SDS011;47256;18.904;-99.054;2022-12-29T14:02:42;23.92;;;7.07;;
61385;SDS011;47256;18.904;-99.054;2022-12-29T14:07:59;43.65;;;8.30;;
61385;SDS011;47256;18.904;-99.054;2022-12-29T14:13:10;19.17;;;8.90;;
61385;SDS011;47256;18.904;-99.054;2022-12-29T14:15:42;22.38;;;8.50;;
61385;SDS011;47256;18.904;-99.054;2022-12-29T14:18:18;35.17;;;10.32;;
61385;SDS011;47256;18.904;-99.054;2022-12-29T14:20:52;29.15;;;10.57;;
61385;SDS011;47256;18.904;-99.054;2022-12-29T14:23:34;16.85;;;8.25;;
61385;SDS011;47256;18.904;-99.054;2022-12-29T14:29:22;24.27;;;9.02;;
61385;SDS011;47256;18.904;-99.054;2022-12-29T14:34:57;19.88;;;9.10;;
61385;SDS011;47256;18.904;-99.054;2022-12-29T14:40:04;24.05;;;9.48;;
61385;SDS011;47256;18.904;-99.054;2022-12-29T14:42:34;24.65;;;9.65;;
61385;SDS011;47256;18.904;-99.054;2022-12-29T14:45:23;21.38;;;9.45;;
61385;SDS011;47256;18.904;-99.054;2022-12-29T14:47:56;10.77;;;6.95;;
61385;SDS011;47256;18.904;-99.054;2022-12-29T14:50:40;14.13;;;6.95;;
61385;SDS011;47256;18.904;-99.054;2022-12-29T14:56:10;25.98;;;8.07;;
61385;SDS011;47256;18.904;-99.054;2022-12-29T15:07:02;15.55;;;7.70;;
61385;SDS011;47256;18.904;-99.054;2022-12-29T15:09:39;11.85;;;6.40;;
61385;SDS011;47256;18.904;-99.054;2022-12-29T15:12:23;11.30;;;6.90;;
61385;SDS011;47256;18.904;-99.054;2022-12-29T15:15:24;22.00;;;6.97;;
61385;SDS011;47256;18.904;-99.054;2022-12-29T15:17:56;13.93;;;6.10;;
61385;SDS011;47256;18.904;-99.054;2022-12-29T15:20:28;12.05;;;5.53;;
61385;SDS011;47256;18.904;-99.054;2022-12-29T15:22:58;11.15;;;6.30;;
61385;SDS011;47256;18.904;-99.054;2022-12-29T15:25:33;16.67;;;5.65;;
61385;SDS011;47256;18.904;-99.054;2022-12-29T15:28:02;15.85;;;7.20;;
61385;SDS011;47256;18.904;-99.054;2022-12-29T15:30:31;15.18;;;6.75;;
61385;SDS011;47256;18.904;-99.054;2022-12-29T15:32:58;13.25;;;7.13;;
61385;SDS011;47256;18.904;-99.054;2022-12-29T15:35:33;14.27;;;7.25;;
61385;SDS011;47256;18.904;-99.054;2022-12-29T15:38:16;12.32;;;6.15;;
61385;SDS011;47256;18.904;-99.054;2022-12-29T15:40:52;9.75;;;5.65;;
61385;SDS011;47256;18.904;-99.054;2022-12-29T15:46:17;12.05;;;5.70;;
61385;SDS011;47256;18.904;-99.054;2022-12-29T15:48:45;13.88;;;5.60;;
61385;SDS011;47256;18.904;-99.054;2022-12-29T15:51:20;10.13;;;5.13;;
61385;SDS011;47256;18.904;-99.054;2022-12-29T15:53:57;15.82;;;4.65;;
61385;SDS011;47256;18.904;-99.054;2022-12-29T15:56:28;9.43;;;4.35;;
61385;SDS011;47256;18.904;-99.054;2022-12-29T15:58:57;4.55;;;3.88;;
61385;SDS011;47256;18.904;-99.054;2022-12-29T16:03:59;8.65;;;5.45;;
61385;SDS011;47256;18.904;-99.054;2022-12-29T16:06:36;13.38;;;4.68;;
61385;SDS011;47256;18.904;-99.054;2022-12-29T16:09:18;6.93;;;4.40;;
61385;SDS011;47256;18.904;-99.054;2022-12-29T16:11:58;11.60;;;4.60;;
61385;SDS011;47256;18.904;-99.054;2022-12-29T16:17:25;11.68;;;5.53;;
61385;SDS011;47256;18.904;-99.054;2022-12-29T16:20:03;10.70;;;5.15;;
61385;SDS011;47256;18.904;-99.054;2022-12-29T16:22:46;11.15;;;5.53;;
61385;SDS011;47256;18.904;-99.054;2022-12-29T16:28:13;13.38;;;4.68;;
61385;SDS011;47256;18.904;-99.054;2022-12-29T16:30:45;13.02;;;4.72;;
61385;SDS011;47256;18.904;-99.054;2022-12-29T16:33:28;5.53;;;3.53;;
61385;SDS011;47256;18.904;-99.054;2022-12-29T16:36:24;3.55;;;2.97;;
61385;SDS011;47256;18.904;-99.054;2022-12-29T16:39:11;5.95;;;3.72;;
61385;SDS011;47256;18.904;-99.054;2022-12-29T16:41:42;4.60;;;3.00;;
61385;SDS011;47256;18.904;-99.054;2022-12-29T16:44:16;6.35;;;3.53;;
61385;SDS011;47256;18.904;-99.054;2022-12-29T16:47:31;20.30;;;3.92;;
61385;SDS011;47256;18.904;-99.054;2022-12-29T16:49:41;7.18;;;3.53;;
61385;SDS011;47256;18.904;-99.054;2022-12-29T16:52:19;5.07;;;3.22;;
61385;SDS011;47256;18.904;-99.054;2022-12-29T16:54:54;7.07;;;4.30;;
61385;SDS011;47256;18.904;-99.054;2022-12-29T16:57:30;8.32;;;3.67;;
61385;SDS011;47256;18.904;-99.054;2022-12-29T17:00:04;5.18;;;3.42;;
61385;SDS011;47256;18.904;-99.054;2022-12-29T17:02:36;6.55;;;3.20;;
61385;SDS011;47256;18.904;-99.054;2022-12-29T17:05:13;9.35;;;5.20;;
61385;SDS011;47256;18.904;-99.054;2022-12-29T17:07:46;8.35;;;4.47;;
61385;SDS011;47256;18.904;-99.054;2022-12-29T17:10:15;10.20;;;3.83;;
61385;SDS011;47256;18.904;-99.054;2022-12-29T17:12:43;5.63;;;3.95;;
61385;SDS011;47256;18.904;-99.054;2022-12-29T17:15:25;5.60;;;3.95;;
61385;SDS011;47256;18.904;-99.054;2022-12-29T17:18:00;9.35;;;5.32;;
61385;SDS011;47256;18.904;-99.054;2022-12-29T17:20:28;10.00;;;5.68;;
61385;SDS011;47256;18.904;-99.054;2022-12-29T17:22:57;9.30;;;5.53;;
61385;SDS011;47256;18.904;-99.054;2022-12-29T17:25:34;8.15;;;5.28;;
61385;SDS011;47256;18.904;-99.054;2022-12-29T17:28:04;11.85;;;6.03;;
61385;SDS011;47256;18.904;-99.054;2022-12-29T17:30:40;11.27;;;4.63;;
61385;SDS011;47256;18.904;-99.054;2022-12-29T17:33:12;9.75;;;5.45;;
61385;SDS011;47256;18.904;-99.054;2022-12-29T17:35:46;6.50;;;4.68;;
61385;SDS011;47256;18.904;-99.054;2022-12-29T17:38:17;6.95;;;4.82;;
61385;SDS011;47256;18.904;-99.054;2022-12-29T17:40:49;11.07;;;5.90;;
61385;SDS011;47256;18.904;-99.054;2022-12-29T17:43:17;9.38;;;5.45;;
61385;SDS011;47256;18.904;-99.054;2022-12-29T17:45:48;9.13;;;5.05;;
61385;SDS011;47256;18.904;-99.054;2022-12-29T17:48:22;8.15;;;4.40;;
61385;SDS011;47256;18.904;-99.054;2022-12-29T17:50:50;5.25;;;3.65;;
61385;SDS011;47256;18.904;-99.054;2022-12-29T17:53:22;6.72;;;4.10;;
61385;SDS011;47256;18.904;-99.054;2022-12-29T17:55:55;9.75;;;4.45;;
61385;SDS011;47256;18.904;-99.054;2022-12-29T17:58:28;7.13;;;3.85;;
61385;SDS011;47256;18.904;-99.054;2022-12-29T18:00:58;7.43;;;4.30;;